sensor_id;sensor_type;location;lat;lon;timestamp;P1;durP1;ratioP1;P2;durP2;ratioP2
23614;SDS011;11985;49.404;7.734;2024-01-11T00:03:01;49.50;;;18.02;;
23614;SDS011;11985;49.404;7.734;2024-01-11T00:08:04;49.55;;;17.58;;
23614;SDS011;11985;49.404;7.734;2024-01-11T00:13:06;51.80;;;19.27;;
23614;SDS011;11985;49.404;7.734;2024-01-11T00:18:08;54.53;;;20.35;;
23614;SDS011;11985;49.404;7.734;2024-01-11T00:23:10;61.30;;;19.90;;
23614;SDS011;11985;49.404;7.734;2024-01-11T00:28:12;56.60;;;18.60;;
23614;SDS011;11985;49.404;7.734;2024-01-11T00:33:14;49.85;;;18.95;;
23614;SDS011;11985;49.404;7.734;2024-01-11T00:38:16;48.70;;;18.20;;
23614;SDS011;11985;49.404;7.734;2024-01-11T00:43:18;51.60;;;18.15;;
23614;SDS011;11985;49.404;7.734;2024-01-11T00:48:20;46.72;;;18.45;;
23614;SDS011;11985;49.404;7.734;2024-01-11T00:53:22;48.67;;;18.38;;
23614;SDS011;11985;49.404;7.734;2024-01-11T00:58:24;52.38;;;18.85;;
23614;SDS011;11985;49.404;7.734;2024-01-11T01:03:26;51.08;;;19.52;;
23614;SDS011;11985;49.404;7.734;2024-01-11T01:08:29;52.53;;;18.58;;
23614;SDS011;11985;49.404;7.734;2024-01-11T01:13:30;50.92;;;19.88;;
23614;SDS011;11985;49.404;7.734;2024-01-11T01:18:32;51.25;;;17.45;;
23614;SDS011;11985;49.404;7.734;2024-01-11T01:23:37;45.97;;;17.25;;
23614;SDS011;11985;49.404;7.734;2024-01-11T01:28:38;51.35;;;18.25;;
23614;SDS011;11985;49.404;7.734;2024-01-11T01:33:40;53.88;;;18.23;;
23614;SDS011;11985;49.404;7.734;2024-01-11T01:38:43;61.05;;;18.75;;
23614;SDS011;11985;49.404;7.734;2024-01-11T01:43:45;49.15;;;17.65;;
23614;SDS011;11985;49.404;7.734;2024-01-11T01:48:47;42.88;;;18.27;;
23614;SDS011;11985;49.404;7.734;2024-01-11T01:53:50;49.53;;;17.48;;
23614;SDS011;11985;49.404;7.734;2024-01-11T01:58:54;54.42;;;19.95;;
23614;SDS011;11985;49.404;7.734;2024-01-11T02:03:56;53.25;;;19.80;;
23614;SDS011;11985;49.404;7.734;2024-01-11T02:09:01;53.50;;;17.83;;
23614;SDS011;11985;49.404;7.734;2024-01-11T02:14:03;52.17;;;18.40;;
23614;SDS011;11985;49.404;7.734;2024-01-11T02:19:05;50.85;;;18.23;;
23614;SDS011;11985;49.404;7.734;2024-01-11T02:24:14;47.63;;;18.02;;
23614;SDS011;11985;49.404;7.734;2024-01-11T02:29:16;54.25;;;19.65;;
23614;SDS011;11985;49.404;7.734;2024-01-11T02:34:17;57.53;;;18.85;;
23614;SDS011;11985;49.404;7.734;2024-01-11T02:39:20;61.10;;;19.35;;
23614;SDS011;11985;49.404;7.734;2024-01-11T02:44:24;48.53;;;16.98;;
23614;SDS011;11985;49.404;7.734;2024-01-11T02:49:25;54.33;;;19.13;;
23614;SDS011;11985;49.404;7.734;2024-01-11T02:54:28;54.50;;;18.83;;
23614;SDS011;11985;49.404;7.734;2024-01-11T02:59:30;53.30;;;20.02;;
23614;SDS011;11985;49.404;7.734;2024-01-11T03:04:32;52.45;;;17.70;;
23614;SDS011;11985;49.404;7.734;2024-01-11T03:09:34;49.80;;;18.30;;
23614;SDS011;11985;49.404;7.734;2024-01-11T03:14:37;57.67;;;20.45;;
23614;SDS011;11985;49.404;7.734;2024-01-11T03:19:39;55.88;;;19.27;;
23614;SDS011;11985;49.404;7.734;2024-01-11T03:24:42;50.22;;;18.33;;
23614;SDS011;11985;49.404;7.734;2024-01-11T03:29:43;56.28;;;20.77;;
23614;SDS011;11985;49.404;7.734;2024-01-11T03:34:45;56.15;;;20.77;;
23614;SDS011;11985;49.404;7.734;2024-01-11T03:39:48;63.75;;;21.38;;
23614;SDS011;11985;49.404;7.734;2024-01-11T03:44:49;56.03;;;20.58;;
23614;SDS011;11985;49.404;7.734;2024-01-11T03:49:51;57.03;;;18.15;;
23614;SDS011;11985;49.404;7.734;2024-01-11T03:54:54;62.03;;;20.58;;
23614;SDS011;11985;49.404;7.734;2024-01-11T03:59:55;59.92;;;21.20;;
23614;SDS011;11985;49.404;7.734;2024-01-11T04:04:58;62.22;;;21.92;;
23614;SDS011;11985;49.404;7.734;2024-01-11T04:10:01;56.90;;;21.70;;
23614;SDS011;11985;49.404;7.734;2024-01-11T04:15:03;61.60;;;21.40;;
23614;SDS011;11985;49.404;7.734;2024-01-11T04:20:06;54.08;;;20.35;;
23614;SDS011;11985;49.404;7.734;2024-01-11T04:25:10;56.55;;;20.73;;
23614;SDS011;11985;49.404;7.734;2024-01-11T04:30:12;52.58;;;19.85;;
23614;SDS011;11985;49.404;7.734;2024-01-11T04:35:13;55.30;;;19.83;;
23614;SDS011;11985;49.404;7.734;2024-01-11T04:40:16;54.90;;;20.17;;
23614;SDS011;11985;49.404;7.734;2024-01-11T04:45:18;55.20;;;20.67;;
23614;SDS011;11985;49.404;7.734;2024-01-11T04:50:19;49.63;;;18.80;;
23614;SDS011;11985;49.404;7.734;2024-01-11T04:55:22;46.30;;;17.95;;
23614;SDS011;11985;49.404;7.734;2024-01-11T05:00:24;55.03;;;18.92;;
23614;SDS011;11985;49.404;7.734;2024-01-11T05:05:25;60.28;;;20.00;;
23614;SDS011;11985;49.404;7.734;2024-01-11T05:10:28;56.97;;;20.63;;
23614;SDS011;11985;49.404;7.734;2024-01-11T05:15:30;54.13;;;19.63;;
23614;SDS011;11985;49.404;7.734;2024-01-11T05:20:31;44.10;;;18.25;;
23614;SDS011;11985;49.404;7.734;2024-01-11T05:25:34;56.35;;;20.27;;
23614;SDS011;11985;49.404;7.734;2024-01-11T05:30:36;60.80;;;20.70;;
23614;SDS011;11985;49.404;7.734;2024-01-11T05:35:37;57.88;;;20.50;;
23614;SDS011;11985;49.404;7.734;2024-01-11T05:40:40;56.15;;;20.98;;
23614;SDS011;11985;49.404;7.734;2024-01-11T05:45:42;53.03;;;19.48;;
23614;SDS011;11985;49.404;7.734;2024-01-11T05:50:43;57.13;;;19.67;;
23614;SDS011;11985;49.404;7.734;2024-01-11T05:55:46;50.67;;;19.02;;
23614;SDS011;11985;49.404;7.734;2024-01-11T06:00:48;52.90;;;19.63;;
23614;SDS011;11985;49.404;7.734;2024-01-11T06:05:50;49.78;;;19.20;;
23614;SDS011;11985;49.404;7.734;2024-01-11T06:10:53;50.53;;;18.92;;
23614;SDS011;11985;49.404;7.734;2024-01-11T06:15:54;49.95;;;19.15;;
23614;SDS011;11985;49.404;7.734;2024-01-11T06:20:56;55.47;;;18.88;;
23614;SDS011;11985;49.404;7.734;2024-01-11T06:25:59;55.13;;;19.20;;
23614;SDS011;11985;49.404;7.734;2024-01-11T06:31:00;55.05;;;19.40;;
23614;SDS011;11985;49.404;7.734;2024-01-11T06:36:02;55.13;;;18.83;;
23614;SDS011;11985;49.404;7.734;2024-01-11T06:41:05;48.92;;;20.10;;
23614;SDS011;11985;49.404;7.734;2024-01-11T06:46:07;51.20;;;18.17;;
23614;SDS011;11985;49.404;7.734;2024-01-11T06:51:10;49.10;;;18.65;;
23614;SDS011;11985;49.404;7.734;2024-01-11T06:56:17;51.60;;;18.85;;
23614;SDS011;11985;49.404;7.734;2024-01-11T07:01:20;53.30;;;18.42;;
23614;SDS011;11985;49.404;7.734;2024-01-11T07:06:21;60.70;;;20.05;;
23614;SDS011;11985;49.404;7.734;2024-01-11T07:11:24;47.40;;;19.90;;
23614;SDS011;11985;49.404;7.734;2024-01-11T07:16:26;49.63;;;19.25;;
23614;SDS011;11985;49.404;7.734;2024-01-11T07:21:27;58.58;;;19.55;;
23614;SDS011;11985;49.404;7.734;2024-01-11T07:26:32;54.57;;;19.63;;
23614;SDS011;11985;49.404;7.734;2024-01-11T07:31:34;53.45;;;19.58;;
23614;SDS011;11985;49.404;7.734;2024-01-11T07:36:35;55.50;;;20.52;;
23614;SDS011;11985;49.404;7.734;2024-01-11T07:41:38;72.57;;;21.15;;
23614;SDS011;11985;49.404;7.734;2024-01-11T07:46:40;60.42;;;20.15;;
23614;SDS011;11985;49.404;7.734;2024-01-11T07:51:41;51.47;;;19.10;;
23614;SDS011;11985;49.404;7.734;2024-01-11T07:56:44;54.42;;;19.33;;
23614;SDS011;11985;49.404;7.734;2024-01-11T08:01:46;53.42;;;19.45;;
23614;SDS011;11985;49.404;7.734;2024-01-11T08:06:48;50.33;;;19.58;;
23614;SDS011;11985;49.404;7.734;2024-01-11T08:11:51;54.55;;;19.75;;
23614;SDS011;11985;49.404;7.734;2024-01-11T08:21:55;62.30;;;20.10;;
23614;SDS011;11985;49.404;7.734;2024-01-11T08:26:58;53.88;;;21.10;;
23614;SDS011;11985;49.404;7.734;2024-01-11T08:32:00;57.60;;;20.38;;
23614;SDS011;11985;49.404;7.734;2024-01-11T08:37:04;63.07;;;19.87;;
23614;SDS011;11985;49.404;7.734;2024-01-11T08:42:07;58.55;;;21.30;;
23614;SDS011;11985;49.404;7.734;2024-01-11T08:47:08;58.90;;;20.20;;
23614;SDS011;11985;49.404;7.734;2024-01-11T08:52:10;57.28;;;20.75;;
23614;SDS011;11985;49.404;7.734;2024-01-11T08:57:13;58.88;;;19.00;;
23614;SDS011;11985;49.404;7.734;2024-01-11T09:02:15;56.00;;;21.52;;
23614;SDS011;11985;49.404;7.734;2024-01-11T09:07:16;65.35;;;22.35;;
23614;SDS011;11985;49.404;7.734;2024-01-11T09:12:19;60.83;;;22.30;;
23614;SDS011;11985;49.404;7.734;2024-01-11T09:17:21;71.20;;;23.13;;
23614;SDS011;11985;49.404;7.734;2024-01-11T09:22:23;62.00;;;20.50;;
23614;SDS011;11985;49.404;7.734;2024-01-11T09:27:27;52.58;;;19.17;;
23614;SDS011;11985;49.404;7.734;2024-01-11T09:32:28;63.10;;;22.38;;
23614;SDS011;11985;49.404;7.734;2024-01-11T09:37:31;56.00;;;19.98;;
23614;SDS011;11985;49.404;7.734;2024-01-11T09:42:34;64.57;;;20.25;;
23614;SDS011;11985;49.404;7.734;2024-01-11T09:47:36;66.57;;;20.98;;
23614;SDS011;11985;49.404;7.734;2024-01-11T09:52:37;70.13;;;23.80;;
23614;SDS011;11985;49.404;7.734;2024-01-11T09:57:44;68.65;;;24.30;;
23614;SDS011;11985;49.404;7.734;2024-01-11T10:02:46;58.08;;;20.73;;
23614;SDS011;11985;49.404;7.734;2024-01-11T10:07:48;65.50;;;22.58;;
23614;SDS011;11985;49.404;7.734;2024-01-11T10:12:51;61.15;;;20.63;;
23614;SDS011;11985;49.404;7.734;2024-01-11T10:17:53;69.05;;;24.75;;
23614;SDS011;11985;49.404;7.734;2024-01-11T10:22:55;70.85;;;23.77;;
23614;SDS011;11985;49.404;7.734;2024-01-11T10:27:59;43.60;;;15.77;;
23614;SDS011;11985;49.404;7.734;2024-01-11T10:33:01;61.88;;;23.08;;
23614;SDS011;11985;49.404;7.734;2024-01-11T10:38:02;80.60;;;28.00;;
23614;SDS011;11985;49.404;7.734;2024-01-11T10:43:13;60.08;;;22.48;;
23614;SDS011;11985;49.404;7.734;2024-01-11T10:48:20;51.22;;;19.88;;
23614;SDS011;11985;49.404;7.734;2024-01-11T10:53:25;59.72;;;21.55;;
23614;SDS011;11985;49.404;7.734;2024-01-11T10:58:33;60.00;;;20.95;;
23614;SDS011;11985;49.404;7.734;2024-01-11T11:03:36;50.00;;;19.27;;
23614;SDS011;11985;49.404;7.734;2024-01-11T11:08:39;55.17;;;20.35;;
23614;SDS011;11985;49.404;7.734;2024-01-11T11:13:42;47.47;;;20.20;;
23614;SDS011;11985;49.404;7.734;2024-01-11T11:18:47;53.75;;;19.63;;
23614;SDS011;11985;49.404;7.734;2024-01-11T11:23:49;52.20;;;20.25;;
23614;SDS011;11985;49.404;7.734;2024-01-11T11:28:52;50.22;;;19.58;;
23614;SDS011;11985;49.404;7.734;2024-01-11T11:33:54;45.83;;;19.30;;
23614;SDS011;11985;49.404;7.734;2024-01-11T11:38:56;43.58;;;16.95;;
23614;SDS011;11985;49.404;7.734;2024-01-11T11:49:05;44.92;;;17.65;;
23614;SDS011;11985;49.404;7.734;2024-01-11T11:54:10;44.88;;;18.27;;
23614;SDS011;11985;49.404;7.734;2024-01-11T11:59:15;45.30;;;18.08;;
23614;SDS011;11985;49.404;7.734;2024-01-11T12:04:17;39.00;;;15.68;;
23614;SDS011;11985;49.404;7.734;2024-01-11T12:09:19;44.38;;;17.35;;
23614;SDS011;11985;49.404;7.734;2024-01-11T12:14:23;42.95;;;17.75;;
23614;SDS011;11985;49.404;7.734;2024-01-11T12:19:25;42.40;;;18.00;;
23614;SDS011;11985;49.404;7.734;2024-01-11T12:24:27;49.70;;;19.02;;
23614;SDS011;11985;49.404;7.734;2024-01-11T12:29:31;38.40;;;17.05;;
23614;SDS011;11985;49.404;7.734;2024-01-11T12:34:33;40.55;;;16.88;;
23614;SDS011;11985;49.404;7.734;2024-01-11T12:39:37;48.90;;;17.40;;
23614;SDS011;11985;49.404;7.734;2024-01-11T12:44:40;40.70;;;17.15;;
23614;SDS011;11985;49.404;7.734;2024-01-11T12:49:43;38.95;;;16.67;;
23614;SDS011;11985;49.404;7.734;2024-01-11T12:54:46;37.03;;;15.68;;
23614;SDS011;11985;49.404;7.734;2024-01-11T12:59:49;43.45;;;17.48;;
23614;SDS011;11985;49.404;7.734;2024-01-11T13:04:50;36.70;;;15.75;;
23614;SDS011;11985;49.404;7.734;2024-01-11T13:09:52;35.33;;;16.00;;
23614;SDS011;11985;49.404;7.734;2024-01-11T13:14:56;39.83;;;16.67;;
23614;SDS011;11985;49.404;7.734;2024-01-11T13:19:57;41.17;;;16.92;;
23614;SDS011;11985;49.404;7.734;2024-01-11T13:24:59;40.75;;;17.60;;
23614;SDS011;11985;49.404;7.734;2024-01-11T13:30:02;39.40;;;17.02;;
23614;SDS011;11985;49.404;7.734;2024-01-11T13:35:05;35.38;;;15.93;;
23614;SDS011;11985;49.404;7.734;2024-01-11T13:40:07;36.92;;;16.52;;
23614;SDS011;11985;49.404;7.734;2024-01-11T13:45:11;41.78;;;16.13;;
23614;SDS011;11985;49.404;7.734;2024-01-11T13:50:12;43.53;;;19.27;;
23614;SDS011;11985;49.404;7.734;2024-01-11T13:55:14;41.70;;;17.02;;
23614;SDS011;11985;49.404;7.734;2024-01-11T14:00:19;37.78;;;15.40;;
23614;SDS011;11985;49.404;7.734;2024-01-11T14:05:21;36.47;;;15.90;;
23614;SDS011;11985;49.404;7.734;2024-01-11T14:10:22;37.25;;;14.80;;
23614;SDS011;11985;49.404;7.734;2024-01-11T14:15:25;35.35;;;15.02;;
23614;SDS011;11985;49.404;7.734;2024-01-11T14:20:28;46.05;;;14.45;;
23614;SDS011;11985;49.404;7.734;2024-01-11T14:25:29;32.38;;;13.30;;
23614;SDS011;11985;49.404;7.734;2024-01-11T14:30:33;33.83;;;13.32;;
23614;SDS011;11985;49.404;7.734;2024-01-11T14:35:34;28.85;;;12.93;;
23614;SDS011;11985;49.404;7.734;2024-01-11T14:40:36;35.80;;;14.10;;
23614;SDS011;11985;49.404;7.734;2024-01-11T14:45:39;29.05;;;12.73;;
23614;SDS011;11985;49.404;7.734;2024-01-11T14:50:41;25.55;;;11.77;;
23614;SDS011;11985;49.404;7.734;2024-01-11T14:55:43;27.33;;;12.45;;
23614;SDS011;11985;49.404;7.734;2024-01-11T15:00:46;37.95;;;15.90;;
23614;SDS011;11985;49.404;7.734;2024-01-11T15:05:47;32.88;;;16.17;;
23614;SDS011;11985;49.404;7.734;2024-01-11T15:10:49;29.73;;;12.65;;
23614;SDS011;11985;49.404;7.734;2024-01-11T15:15:52;27.63;;;11.65;;
23614;SDS011;11985;49.404;7.734;2024-01-11T15:20:53;29.40;;;11.55;;
23614;SDS011;11985;49.404;7.734;2024-01-11T15:25:55;26.58;;;12.20;;
23614;SDS011;11985;49.404;7.734;2024-01-11T15:30:58;30.40;;;13.60;;
23614;SDS011;11985;49.404;7.734;2024-01-11T15:35:59;30.05;;;12.90;;
23614;SDS011;11985;49.404;7.734;2024-01-11T15:41:01;28.83;;;12.52;;
23614;SDS011;11985;49.404;7.734;2024-01-11T15:46:04;39.15;;;15.02;;
23614;SDS011;11985;49.404;7.734;2024-01-11T15:51:06;28.92;;;12.30;;
23614;SDS011;11985;49.404;7.734;2024-01-11T15:56:07;31.50;;;12.95;;
23614;SDS011;11985;49.404;7.734;2024-01-11T16:01:10;28.23;;;11.18;;
23614;SDS011;11985;49.404;7.734;2024-01-11T16:06:12;29.30;;;11.68;;
23614;SDS011;11985;49.404;7.734;2024-01-11T16:11:13;36.45;;;13.05;;
23614;SDS011;11985;49.404;7.734;2024-01-11T16:16:16;26.35;;;11.00;;
23614;SDS011;11985;49.404;7.734;2024-01-11T16:21:18;26.58;;;10.95;;
23614;SDS011;11985;49.404;7.734;2024-01-11T16:26:19;27.25;;;11.50;;
23614;SDS011;11985;49.404;7.734;2024-01-11T16:31:22;28.70;;;12.07;;
23614;SDS011;11985;49.404;7.734;2024-01-11T16:36:24;34.05;;;15.65;;
23614;SDS011;11985;49.404;7.734;2024-01-11T16:41:25;42.80;;;19.02;;
23614;SDS011;11985;49.404;7.734;2024-01-11T16:46:28;29.25;;;12.45;;
23614;SDS011;11985;49.404;7.734;2024-01-11T16:51:30;30.98;;;11.90;;
23614;SDS011;11985;49.404;7.734;2024-01-11T16:56:32;30.05;;;11.15;;
23614;SDS011;11985;49.404;7.734;2024-01-11T17:01:35;32.28;;;11.82;;
23614;SDS011;11985;49.404;7.734;2024-01-11T17:06:37;35.97;;;15.27;;
23614;SDS011;11985;49.404;7.734;2024-01-11T17:11:38;33.88;;;12.70;;
23614;SDS011;11985;49.404;7.734;2024-01-11T17:16:41;32.25;;;12.75;;
23614;SDS011;11985;49.404;7.734;2024-01-11T17:21:43;33.60;;;12.20;;
23614;SDS011;11985;49.404;7.734;2024-01-11T17:26:45;30.10;;;12.23;;
23614;SDS011;11985;49.404;7.734;2024-01-11T17:31:48;26.52;;;11.55;;
23614;SDS011;11985;49.404;7.734;2024-01-11T17:36:49;34.33;;;12.32;;
23614;SDS011;11985;49.404;7.734;2024-01-11T17:41:51;31.48;;;12.18;;
23614;SDS011;11985;49.404;7.734;2024-01-11T17:46:54;28.92;;;12.48;;
23614;SDS011;11985;49.404;7.734;2024-01-11T17:51:56;27.17;;;11.25;;
23614;SDS011;11985;49.404;7.734;2024-01-11T17:56:57;28.20;;;11.27;;
23614;SDS011;11985;49.404;7.734;2024-01-11T18:02:00;31.05;;;12.88;;
23614;SDS011;11985;49.404;7.734;2024-01-11T18:07:02;31.00;;;12.65;;
23614;SDS011;11985;49.404;7.734;2024-01-11T18:12:07;26.33;;;11.48;;
23614;SDS011;11985;49.404;7.734;2024-01-11T18:17:10;29.10;;;12.07;;
23614;SDS011;11985;49.404;7.734;2024-01-11T18:22:12;30.77;;;12.05;;
23614;SDS011;11985;49.404;7.734;2024-01-11T18:27:14;33.35;;;12.50;;
23614;SDS011;11985;49.404;7.734;2024-01-11T18:32:17;32.88;;;11.70;;
23614;SDS011;11985;49.404;7.734;2024-01-11T18:37:19;26.08;;;11.63;;
23614;SDS011;11985;49.404;7.734;2024-01-11T18:42:24;31.60;;;13.13;;
23614;SDS011;11985;49.404;7.734;2024-01-11T18:47:27;33.50;;;11.63;;
23614;SDS011;11985;49.404;7.734;2024-01-11T18:52:28;30.73;;;12.95;;
23614;SDS011;11985;49.404;7.734;2024-01-11T18:57:31;26.00;;;11.23;;
23614;SDS011;11985;49.404;7.734;2024-01-11T19:02:33;33.40;;;12.93;;
23614;SDS011;11985;49.404;7.734;2024-01-11T19:07:35;33.38;;;11.90;;
23614;SDS011;11985;49.404;7.734;2024-01-11T19:12:37;30.17;;;12.55;;
23614;SDS011;11985;49.404;7.734;2024-01-11T19:17:40;34.25;;;12.55;;
23614;SDS011;11985;49.404;7.734;2024-01-11T19:22:42;32.80;;;12.82;;
23614;SDS011;11985;49.404;7.734;2024-01-11T19:27:43;32.15;;;12.30;;
23614;SDS011;11985;49.404;7.734;2024-01-11T19:32:46;27.38;;;12.07;;
23614;SDS011;11985;49.404;7.734;2024-01-11T19:37:48;28.75;;;11.32;;
23614;SDS011;11985;49.404;7.734;2024-01-11T19:42:49;30.50;;;11.82;;
23614;SDS011;11985;49.404;7.734;2024-01-11T19:47:52;32.97;;;13.02;;
23614;SDS011;11985;49.404;7.734;2024-01-11T19:52:54;33.75;;;13.15;;
23614;SDS011;11985;49.404;7.734;2024-01-11T19:57:56;39.58;;;14.43;;
23614;SDS011;11985;49.404;7.734;2024-01-11T20:02:59;38.15;;;13.48;;
23614;SDS011;11985;49.404;7.734;2024-01-11T20:08:02;30.67;;;12.75;;
23614;SDS011;11985;49.404;7.734;2024-01-11T20:13:03;34.88;;;13.05;;
23614;SDS011;11985;49.404;7.734;2024-01-11T20:18:06;33.13;;;12.88;;
23614;SDS011;11985;49.404;7.734;2024-01-11T20:23:08;34.45;;;13.27;;
23614;SDS011;11985;49.404;7.734;2024-01-11T20:28:10;39.30;;;14.07;;
23614;SDS011;11985;49.404;7.734;2024-01-11T20:33:13;41.17;;;15.15;;
23614;SDS011;11985;49.404;7.734;2024-01-11T20:38:15;30.88;;;11.95;;
23614;SDS011;11985;49.404;7.734;2024-01-11T20:43:16;32.70;;;13.45;;
23614;SDS011;11985;49.404;7.734;2024-01-11T20:48:19;36.83;;;14.23;;
23614;SDS011;11985;49.404;7.734;2024-01-11T20:53:21;42.55;;;14.43;;
23614;SDS011;11985;49.404;7.734;2024-01-11T20:58:23;34.25;;;12.98;;
23614;SDS011;11985;49.404;7.734;2024-01-11T21:03:25;30.65;;;11.95;;
23614;SDS011;11985;49.404;7.734;2024-01-11T21:08:27;60.90;;;19.77;;
23614;SDS011;11985;49.404;7.734;2024-01-11T21:13:29;46.53;;;18.00;;
23614;SDS011;11985;49.404;7.734;2024-01-11T21:18:33;31.48;;;13.60;;
23614;SDS011;11985;49.404;7.734;2024-01-11T21:23:35;33.85;;;13.00;;
23614;SDS011;11985;49.404;7.734;2024-01-11T21:28:37;39.10;;;13.18;;
23614;SDS011;11985;49.404;7.734;2024-01-11T21:33:43;31.80;;;12.23;;
23614;SDS011;11985;49.404;7.734;2024-01-11T21:38:44;31.85;;;12.27;;
23614;SDS011;11985;49.404;7.734;2024-01-11T21:43:46;30.25;;;11.35;;
23614;SDS011;11985;49.404;7.734;2024-01-11T21:48:49;31.67;;;12.48;;
23614;SDS011;11985;49.404;7.734;2024-01-11T21:53:51;25.60;;;11.43;;
23614;SDS011;11985;49.404;7.734;2024-01-11T21:58:57;28.95;;;11.52;;
23614;SDS011;11985;49.404;7.734;2024-01-11T22:04:00;32.95;;;12.10;;
23614;SDS011;11985;49.404;7.734;2024-01-11T22:09:02;33.20;;;12.25;;
23614;SDS011;11985;49.404;7.734;2024-01-11T22:14:05;29.25;;;12.52;;
23614;SDS011;11985;49.404;7.734;2024-01-11T22:19:08;39.75;;;12.68;;
23614;SDS011;11985;49.404;7.734;2024-01-11T22:24:09;33.97;;;13.50;;
23614;SDS011;11985;49.404;7.734;2024-01-11T22:29:11;42.35;;;14.93;;
23614;SDS011;11985;49.404;7.734;2024-01-11T22:34:14;34.20;;;15.02;;
23614;SDS011;11985;49.404;7.734;2024-01-11T22:39:16;36.45;;;15.55;;
23614;SDS011;11985;49.404;7.734;2024-01-11T22:44:18;36.13;;;14.30;;
23614;SDS011;11985;49.404;7.734;2024-01-11T22:49:21;36.35;;;14.32;;
23614;SDS011;11985;49.404;7.734;2024-01-11T22:54:23;36.88;;;14.85;;
23614;SDS011;11985;49.404;7.734;2024-01-11T22:59:24;39.25;;;14.43;;
23614;SDS011;11985;49.404;7.734;2024-01-11T23:04:28;38.88;;;14.70;;
23614;SDS011;11985;49.404;7.734;2024-01-11T23:14:31;35.25;;;13.95;;
23614;SDS011;11985;49.404;7.734;2024-01-11T23:19:34;38.60;;;13.63;;
23614;SDS011;11985;49.404;7.734;2024-01-11T23:24:36;34.95;;;13.93;;
23614;SDS011;11985;49.404;7.734;2024-01-11T23:29:37;36.47;;;14.05;;
23614;SDS011;11985;49.404;7.734;2024-01-11T23:34:40;36.95;;;14.93;;
23614;SDS011;11985;49.404;7.734;2024-01-11T23:39:42;34.00;;;14.07;;
23614;SDS011;11985;49.404;7.734;2024-01-11T23:44:43;37.30;;;15.13;;
23614;SDS011;11985;49.404;7.734;2024-01-11T23:49:46;36.13;;;14.20;;
23614;SDS011;11985;49.404;7.734;2024-01-11T23:54:48;48.20;;;16.73;;
23614;SDS011;11985;49.404;7.734;2024-01-11T23:59:49;39.00;;;14.77;;
